Aérodrome :
LOGIN :

S'inscrire | Disclaimer

   EN    FR    IT 

 










Légende :    VFR   VFR Marginal   IFR   IFR Intensif   IFR Très Intensif
Visi : 
Plafond : 
>= 8 km
>= 3000ft
5 à 8 km
1000 à 3000 ft
1500m à 5 km
500 à 1000 ft
800 à 1500m
200 à 500 ft
< 800m
< 200 ft
Symboles :   Orages  Brouillard  Fortes neiges  Fortes précipitations  Vent > 20 kt
SIGMETs :   Divers  Orages  Givrage  Turbulence  Onde Orograph.  Cendres Volcan.






- Altitude de l'aérodrome : 147 ft
- Code IATA : DUS


EDDL - Düsseldorf Int.

DERNIER METAR :
  • 030650Z 09003KT 9999 FEW045 14/13 Q1013 TEMPO RA

METARs EXPIRÉS :
  • 030620Z 08003KT 040V100 CAVOK 14/13 Q1013 TEMPO RA
  • 030550Z VRB02KT CAVOK 14/13 Q1013 TEMPO RA
  • 030520Z VRB01KT 9999 -RA NSC 14/13 Q1014 TEMPO RA
  • 030450Z VRB02KT 9999 -RA NSC 13/12 Q1014 TEMPO RA
  • 030420Z VRB02KT 9999 -RA NSC 12/12 Q1014 TEMPO RA

TAF TAF EDDL
Valide du 03 à 06h jusqu'au 04 à 12h UTC


030500Z 0306/0412 VRB03KT 9999 BKN030
TEMPO 0306/0311 11005KT RA
TEMPO 0311/0317 36007KT SHRA BKN020CB
PROB30
TEMPO 0404/0408 BKN010



MET'MAP, la Météo Aéronautique d'un coup d'oeil ! - Copyright ORBIFLY Décembre 2007 - Disclaimer

ORBIFLY MET'MAP TEAM :

Programmation & Développement : Alexandra Zaïnal
Sur une idée originale de : Baudouin d'Aumeries
Assistance à la programmation : Marc-Olivier Méhu
Soutien technique & logistique : Manuel Goepfert

Contact : metmap@orbifly.com




SOURCES & CREDITS :

   NOAA